Time;durP1;ratioP1;P1;durP2;ratioP2;P2;SDS_P1;SDS_P2;PMS_P1;PMS_P2;Temp;Humidity;BMP_temperature;BMP_pressure;BME280_temperature;BME280_humidity;BME280_pressure;Samples;Min_cycle;Max_cycle;Signal;HPM_P1;HPM_P2
2023/01/02 00:00:40;;;;;;;3.88;1.50;;;;;;;;;;5107727;28;20047;-75
2023/01/02 00:03:10;;;;;;;7.88;1.77;;;;;;;;;;5106786;28;20047;-74
2023/01/02 00:05:42;;;;;;;7.13;1.58;;;;;;;;;;5107748;28;20133;-76
2023/01/02 00:08:11;;;;;;;3.92;1.50;;;;;;;;;;5107267;28;20039;-75
2023/01/02 00:10:43;;;;;;;3.83;1.70;;;;;;;;;;5106594;28;20055;-74
2023/01/02 00:13:15;;;;;;;3.38;1.30;;;;;;;;;;5107194;28;20052;-75
2023/01/02 00:15:46;;;;;;;3.40;1.30;;;;;;;;;;5107587;28;20051;-75
2023/01/02 00:18:18;;;;;;;3.67;1.65;;;;;;;;;;5107284;28;20070;-76
2023/01/02 00:20:49;;;;;;;5.88;1.40;;;;;;;;;;5107389;28;20494;-77
2023/01/02 00:23:20;;;;;;;5.18;1.48;;;;;;;;;;5107565;28;20287;-76
2023/01/02 00:25:50;;;;;;;5.22;1.40;;;;;;;;;;5106750;28;20529;-76
2023/01/02 00:28:20;;;;;;;4.07;1.45;;;;;;;;;;5107305;28;20058;-75
2023/01/02 00:30:51;;;;;;;3.20;1.30;;;;;;;;;;5106801;28;20139;-75
2023/01/02 00:33:23;;;;;;;2.38;1.23;;;;;;;;;;5106107;28;20050;-74
2023/01/02 00:35:53;;;;;;;2.88;1.10;;;;;;;;;;5107242;28;20604;-76
2023/01/02 00:38:23;;;;;;;3.70;1.10;;;;;;;;;;5105783;28;20528;-75
2023/01/02 00:40:53;;;;;;;4.18;1.80;;;;;;;;;;5106333;28;20478;-76
2023/01/02 00:43:24;;;;;;;3.05;1.15;;;;;;;;;;5105550;28;20051;-75
2023/01/02 00:45:55;;;;;;;2.72;1.17;;;;;;;;;;5107052;28;20044;-74
2023/01/02 00:48:25;;;;;;;6.13;1.33;;;;;;;;;;5107240;28;20494;-75
2023/01/02 00:50:55;;;;;;;5.68;1.38;;;;;;;;;;5107249;28;20523;-74
2023/01/02 00:53:25;;;;;;;3.95;1.38;;;;;;;;;;5106983;28;20047;-75
2023/01/02 00:55:55;;;;;;;5.30;1.30;;;;;;;;;;5105549;28;20051;-76
2023/01/02 00:58:27;;;;;;;3.72;1.10;;;;;;;;;;5106101;28;20039;-74
2023/01/02 01:00:57;;;;;;;5.28;1.35;;;;;;;;;;5105267;28;20058;-75
2023/01/02 01:03:27;;;;;;;3.67;1.10;;;;;;;;;;5106200;28;20057;-75
2023/01/02 01:05:57;;;;;;;3.58;1.10;;;;;;;;;;5106449;28;20070;-75
2023/01/02 01:08:29;;;;;;;4.25;1.20;;;;;;;;;;5106769;28;20042;-75
2023/01/02 01:11:05;;;;;;;4.15;1.10;;;;;;;;;;5110543;28;20071;-76
2023/01/02 01:13:37;;;;;;;4.32;1.52;;;;;;;;;;5111050;28;20047;-75
2023/01/02 01:16:16;;;;;;;1.77;1.00;;;;;;;;;;5110877;28;20353;-75
2023/01/02 01:18:48;;;;;;;6.38;1.30;;;;;;;;;;5109432;28;20506;-76
2023/01/02 01:21:20;;;;;;;4.00;1.35;;;;;;;;;;5109879;28;20097;-76
2023/01/02 01:24:17;;;;;;;4.18;1.55;;;;;;;;;;5108723;28;20655;-73
2023/01/02 01:26:47;;;;;;;5.97;1.10;;;;;;;;;;5110191;28;20430;-75
2023/01/02 01:29:18;;;;;;;3.03;1.50;;;;;;;;;;5108238;28;20052;-75
2023/01/02 01:31:49;;;;;;;4.82;1.52;;;;;;;;;;5108568;28;20039;-75
2023/01/02 01:34:18;;;;;;;4.82;1.90;;;;;;;;;;5108170;28;20046;-76
2023/01/02 01:36:49;;;;;;;2.97;1.27;;;;;;;;;;5108645;28;20533;-75
2023/01/02 01:39:19;;;;;;;7.43;1.50;;;;;;;;;;5108329;28;20414;-76
2023/01/02 01:41:51;;;;;;;3.35;1.05;;;;;;;;;;5108155;28;20548;-75
2023/01/02 01:44:41;;;;;;;2.38;1.13;;;;;;;;;;5107487;28;20051;-75
2023/01/02 01:47:37;;;;;;;3.00;1.30;;;;;;;;;;5110480;28;20055;-75
2023/01/02 01:50:21;;;;;;;5.53;1.45;;;;;;;;;;5110325;28;20409;-75
2023/01/02 01:53:06;;;;;;;3.38;1.33;;;;;;;;;;5108660;28;20044;-76
2023/01/02 01:55:50;;;;;;;1.65;1.05;;;;;;;;;;5109250;28;20047;-76
2023/01/02 01:58:25;;;;;;;4.78;1.70;;;;;;;;;;5109193;28;20055;-76
2023/01/02 02:00:58;;;;;;;4.13;1.23;;;;;;;;;;5102019;28;20150;-77
2023/01/02 02:03:32;;;;;;;5.85;2.45;;;;;;;;;;5089910;28;20052;-76
2023/01/02 02:06:03;;;;;;;2.30;1.20;;;;;;;;;;5089553;28;20497;-76
2023/01/02 02:08:58;;;;;;;3.35;1.23;;;;;;;;;;5089532;28;20052;-75
2023/01/02 02:11:30;;;;;;;3.05;1.27;;;;;;;;;;5088818;28;20055;-76
2023/01/02 02:14:01;;;;;;;3.38;1.13;;;;;;;;;;5089378;28;20044;-76
2023/01/02 02:16:59;;;;;;;3.45;1.10;;;;;;;;;;5089820;28;20482;-76
2023/01/02 02:19:55;;;;;;;3.60;1.40;;;;;;;;;;5088950;28;20063;-76
2023/01/02 02:22:44;;;;;;;2.50;1.13;;;;;;;;;;5089184;28;20036;-75
2023/01/02 02:25:58;;;;;;;3.88;1.20;;;;;;;;;;5088413;28;20048;-76
2023/01/02 02:28:55;;;;;;;2.92;1.02;;;;;;;;;;5025887;28;20054;-76
2023/01/02 02:31:39;;;;;;;6.72;1.17;;;;;;;;;;5026260;28;20061;-75
2023/01/02 02:34:23;;;;;;;3.88;1.10;;;;;;;;;;5076872;28;20055;-75
2023/01/02 02:37:07;;;;;;;4.75;0.98;;;;;;;;;;5089687;28;20051;-75
2023/01/02 02:39:54;;;;;;;2.70;1.00;;;;;;;;;;5088026;28;20055;-76
2023/01/02 02:42:42;;;;;;;4.57;1.00;;;;;;;;;;5088983;28;20043;-75
2023/01/02 02:45:22;;;;;;;3.13;1.38;;;;;;;;;;5089778;28;20040;-76
2023/01/02 02:48:10;;;;;;;1.85;0.93;;;;;;;;;;5088111;28;20043;-75
2023/01/02 02:50:50;;;;;;;2.50;1.23;;;;;;;;;;5088680;28;20052;-77
2023/01/02 02:53:28;;;;;;;3.55;1.30;;;;;;;;;;5088502;28;20139;-75
2023/01/02 02:56:02;;;;;;;3.30;1.30;;;;;;;;;;5086888;28;20051;-76
2023/01/02 02:58:33;;;;;;;2.83;1.02;;;;;;;;;;5088521;28;20059;-76
2023/01/02 03:01:10;;;;;;;5.70;1.13;;;;;;;;;;5088513;28;20048;-76
2023/01/02 03:03:41;;;;;;;2.85;1.20;;;;;;;;;;5087109;28;20067;-76
2023/01/02 03:06:23;;;;;;;4.00;1.30;;;;;;;;;;5088806;28;20052;-76
2023/01/02 03:09:12;;;;;;;5.40;1.52;;;;;;;;;;5088530;28;20059;-76
2023/01/02 03:11:58;;;;;;;2.58;1.00;;;;;;;;;;5088366;28;20411;-75
2023/01/02 03:14:57;;;;;;;3.65;1.00;;;;;;;;;;5087775;28;20410;-75
2023/01/02 03:17:51;;;;;;;3.53;1.25;;;;;;;;;;5087657;28;20052;-75
2023/01/02 03:20:26;;;;;;;3.95;0.88;;;;;;;;;;5086287;28;20060;-76
2023/01/02 03:23:04;;;;;;;3.30;1.00;;;;;;;;;;5087213;28;20529;-75
2023/01/02 03:25:36;;;;;;;3.33;1.20;;;;;;;;;;5087739;28;20064;-75
2023/01/02 03:28:09;;;;;;;2.38;1.00;;;;;;;;;;5087992;28;20044;-75
2023/01/02 03:30:41;;;;;;;3.88;1.17;;;;;;;;;;5087193;28;20047;-76
2023/01/02 03:33:19;;;;;;;2.97;1.10;;;;;;;;;;5087103;28;20048;-76
2023/01/02 03:35:56;;;;;;;4.05;1.13;;;;;;;;;;5087811;28;20063;-75
2023/01/02 03:38:37;;;;;;;7.43;1.10;;;;;;;;;;5087670;28;20048;-75
2023/01/02 03:41:23;;;;;;;1.45;0.80;;;;;;;;;;5087212;28;20517;-76
2023/01/02 03:43:56;;;;;;;4.13;1.20;;;;;;;;;;5087793;28;20048;-75
2023/01/02 03:46:36;;;;;;;3.00;1.05;;;;;;;;;;5088147;28;20406;-75
2023/01/02 03:49:13;;;;;;;3.42;1.13;;;;;;;;;;5088092;28;20040;-75
2023/01/02 03:51:44;;;;;;;1.98;1.00;;;;;;;;;;5088289;28;20040;-75
2023/01/02 03:54:17;;;;;;;2.00;1.25;;;;;;;;;;5087287;28;20418;-75
2023/01/02 03:57:02;;;;;;;1.90;0.90;;;;;;;;;;5086622;28;20498;-75
2023/01/02 03:59:38;;;;;;;3.03;1.05;;;;;;;;;;5087997;28;20044;-76
2023/01/02 04:02:33;;;;;;;2.10;1.10;;;;;;;;;;5087015;28;20067;-75
2023/01/02 04:05:34;;;;;;;4.38;1.20;;;;;;;;;;5087815;28;20359;-75
2023/01/02 04:08:12;;;;;;;2.25;1.10;;;;;;;;;;5087524;28;20511;-75
2023/01/02 04:10:46;;;;;;;3.80;2.40;;;;;;;;;;5086927;28;20495;-75
2023/01/02 04:13:29;;;;;;;1.75;1.30;;;;;;;;;;5086782;28;20040;-75
2023/01/02 04:16:03;;;;;;;2.60;1.23;;;;;;;;;;5086962;28;20063;-76
2023/01/02 04:18:46;;;;;;;4.57;1.38;;;;;;;;;;5086067;28;20433;-75
2023/01/02 04:21:22;;;;;;;2.72;1.13;;;;;;;;;;5087155;28;21043;-76
2023/01/02 04:24:18;;;;;;;2.15;1.27;;;;;;;;;;5087701;28;20049;-75
2023/01/02 04:27:06;;;;;;;3.30;1.30;;;;;;;;;;5086901;28;20058;-75
2023/01/02 04:29:37;;;;;;;6.47;1.30;;;;;;;;;;5086438;28;20047;-75
2023/01/02 04:32:19;;;;;;;3.05;1.30;;;;;;;;;;5085508;28;20139;-75
2023/01/02 04:34:51;;;;;;;4.05;1.13;;;;;;;;;;5086682;28;20506;-75
2023/01/02 04:37:34;;;;;;;2.15;1.20;;;;;;;;;;5086181;28;20047;-75
2023/01/02 04:40:17;;;;;;;3.95;1.15;;;;;;;;;;5086172;28;20055;-75
2023/01/02 04:42:47;;;;;;;3.88;1.25;;;;;;;;;;5086081;28;20075;-75
2023/01/02 04:45:17;;;;;;;1.45;1.00;;;;;;;;;;5086622;28;20047;-75
2023/01/02 04:47:49;;;;;;;3.33;1.25;;;;;;;;;;5087086;28;20062;-75
2023/01/02 04:50:20;;;;;;;3.00;1.27;;;;;;;;;;5086471;28;20052;-75
2023/01/02 04:52:49;;;;;;;4.18;1.50;;;;;;;;;;5083866;28;20051;-75
2023/01/02 04:55:20;;;;;;;1.73;1.00;;;;;;;;;;5085573;28;20039;-75
2023/01/02 04:57:50;;;;;;;2.33;1.33;;;;;;;;;;5085774;28;20396;-75
2023/01/02 05:00:20;;;;;;;2.92;1.30;;;;;;;;;;5085678;28;20058;-75
2023/01/02 05:02:51;;;;;;;4.50;1.20;;;;;;;;;;5085617;28;20423;-75
2023/01/02 05:05:22;;;;;;;3.80;1.25;;;;;;;;;;5085921;28;20040;-75
2023/01/02 05:07:52;;;;;;;1.60;1.13;;;;;;;;;;5086014;28;20044;-75
2023/01/02 05:10:23;;;;;;;1.98;1.30;;;;;;;;;;5086046;28;20055;-75
2023/01/02 05:12:56;;;;;;;1.17;1.00;;;;;;;;;;5086148;28;20054;-75
2023/01/02 05:15:27;;;;;;;2.95;1.10;;;;;;;;;;5085956;28;20059;-75
2023/01/02 05:17:57;;;;;;;2.30;1.25;;;;;;;;;;5085435;28;20032;-75
2023/01/02 05:20:27;;;;;;;3.78;1.33;;;;;;;;;;5086019;28;20055;-75
2023/01/02 05:25:48;;;;;;;4.93;1.25;;;;;;;;;;5086102;28;20040;-75
2023/01/02 05:28:18;;;;;;;2.55;1.17;;;;;;;;;;5085538;28;20051;-75
2023/01/02 05:30:48;;;;;;;6.28;1.38;;;;;;;;;;5086785;28;20051;-75
2023/01/02 05:33:18;;;;;;;3.28;1.40;;;;;;;;;;5086083;28;20047;-75
2023/01/02 05:35:49;;;;;;;2.78;1.10;;;;;;;;;;5085207;28;20051;-75
2023/01/02 05:38:21;;;;;;;4.38;1.25;;;;;;;;;;5084538;28;20502;-75
2023/01/02 05:41:03;;;;;;;;;;;;;;;;;;5086080;28;20043;-75
2023/01/02 05:43:35;;;;;;;8.23;1.65;;;;;;;;;;5084231;28;19935;-75
2023/01/02 05:46:11;;;;;;;4.28;1.15;;;;;;;;;;5085697;28;20510;-75
2023/01/02 05:48:42;;;;;;;;;;;;;;;;;;5086548;28;20048;-75
2023/01/02 05:51:13;;;;;;;3.80;1.40;;;;;;;;;;5085897;28;20382;-75
2023/01/02 05:53:45;;;;;;;6.68;1.23;;;;;;;;;;5085856;28;20056;-75
2023/01/02 05:56:17;;;;;;;3.08;1.25;;;;;;;;;;5087680;28;20055;-75
2023/01/02 05:58:49;;;;;;;3.47;1.20;;;;;;;;;;5089494;28;20044;-75
2023/01/02 06:01:24;;;;;;;3.55;1.25;;;;;;;;;;5088746;28;20048;-75
2023/01/02 06:03:57;;;;;;;3.15;1.20;;;;;;;;;;5086953;28;20055;-75
2023/01/02 06:06:37;;;;;;;2.25;1.27;;;;;;;;;;5087078;28;20048;-75
2023/01/02 06:09:12;;;;;;;3.33;1.27;;;;;;;;;;5089308;28;20052;-75
2023/01/02 06:11:44;;;;;;;2.58;1.23;;;;;;;;;;5089625;28;20044;-75
2023/01/02 06:14:14;;;;;;;1.85;1.00;;;;;;;;;;5089166;28;20494;-75
2023/01/02 06:16:45;;;;;;;1.95;1.30;;;;;;;;;;5089312;28;20426;-75
2023/01/02 06:19:15;;;;;;;1.42;1.30;;;;;;;;;;5089625;28;20047;-75
2023/01/02 06:21:45;;;;;;;1.67;1.50;;;;;;;;;;5089555;28;20055;-74
2023/01/02 06:24:15;;;;;;;4.95;1.10;;;;;;;;;;5088030;28;20062;-75
2023/01/02 06:26:46;;;;;;;3.03;1.13;;;;;;;;;;5089624;28;20051;-75
2023/01/02 06:29:16;;;;;;;4.20;1.23;;;;;;;;;;5089482;28;20376;-76
2023/01/02 06:31:46;;;;;;;1.33;1.00;;;;;;;;;;5088514;28;20044;-75
2023/01/02 06:34:20;;;;;;;4.90;1.25;;;;;;;;;;5088102;28;20044;-76
2023/01/02 06:36:49;;;;;;;2.75;1.58;;;;;;;;;;5088206;28;20051;-76
2023/01/02 06:39:20;;;;;;;1.33;1.02;;;;;;;;;;5089172;28;20044;-76
2023/01/02 06:41:51;;;;;;;1.88;1.30;;;;;;;;;;5088730;28;20391;-76
2023/01/02 06:44:28;;;;;;;1.90;1.20;;;;;;;;;;5089017;28;20044;-75
2023/01/02 06:47:00;;;;;;;2.63;1.48;;;;;;;;;;5088635;28;20525;-76
2023/01/02 06:49:30;;;;;;;1.73;1.10;;;;;;;;;;5088071;28;20047;-75
2023/01/02 06:52:00;;;;;;;2.92;1.20;;;;;;;;;;5086589;28;20056;-75
2023/01/02 06:54:32;;;;;;;1.80;1.20;;;;;;;;;;5088694;28;20044;-75
2023/01/02 06:57:04;;;;;;;5.65;1.80;;;;;;;;;;5087786;28;20055;-75
2023/01/02 06:59:34;;;;;;;1.88;1.00;;;;;;;;;;5088575;28;20059;-75
2023/01/02 07:02:05;;;;;;;2.47;1.08;;;;;;;;;;5088969;28;20048;-75
2023/01/02 07:04:35;;;;;;;3.47;1.13;;;;;;;;;;5088901;28;20051;-75
2023/01/02 07:07:05;;;;;;;2.67;1.13;;;;;;;;;;5087116;28;20051;-75
2023/01/02 07:09:36;;;;;;;2.25;1.23;;;;;;;;;;5087823;28;20052;-75
2023/01/02 07:12:07;;;;;;;1.70;1.23;;;;;;;;;;5086216;28;20048;-76
2023/01/02 07:14:37;;;;;;;3.15;1.27;;;;;;;;;;5088277;28;20406;-76
2023/01/02 07:17:07;;;;;;;4.30;1.23;;;;;;;;;;5086633;28;20055;-76
2023/01/02 07:19:37;;;;;;;3.38;1.38;;;;;;;;;;5087616;28;20048;-75
2023/01/02 07:22:07;;;;;;;3.13;1.17;;;;;;;;;;5087338;28;20051;-75
2023/01/02 07:24:38;;;;;;;8.05;1.50;;;;;;;;;;5087760;28;20090;-76
2023/01/02 07:27:08;;;;;;;2.92;1.30;;;;;;;;;;5087400;28;20067;-76
2023/01/02 07:29:38;;;;;;;3.88;1.30;;;;;;;;;;5087605;28;20514;-76
2023/01/02 07:32:09;;;;;;;2.38;1.20;;;;;;;;;;5086809;28;20051;-75
2023/01/02 07:34:40;;;;;;;3.38;1.35;;;;;;;;;;5087233;28;20056;-75
2023/01/02 07:37:12;;;;;;;3.00;1.30;;;;;;;;;;5087486;28;20507;-76
2023/01/02 07:39:42;;;;;;;2.00;1.20;;;;;;;;;;5087848;28;20119;-75
2023/01/02 07:42:12;;;;;;;2.47;1.27;;;;;;;;;;5088419;28;20052;-75
2023/01/02 07:44:43;;;;;;;5.30;1.45;;;;;;;;;;5087399;28;20044;-80
2023/01/02 07:47:15;;;;;;;2.65;1.65;;;;;;;;;;5085962;28;20427;-75
2023/01/02 07:49:46;;;;;;;3.30;1.30;;;;;;;;;;5087178;28;20051;-75
2023/01/02 07:52:17;;;;;;;4.65;1.35;;;;;;;;;;5087056;28;20047;-76
2023/01/02 07:54:46;;;;;;;3.03;1.92;;;;;;;;;;5086890;28;20082;-76
2023/01/02 07:57:17;;;;;;;2.80;1.20;;;;;;;;;;5086987;28;20059;-75
2023/01/02 07:59:48;;;;;;;6.25;1.50;;;;;;;;;;5087322;28;20418;-76
2023/01/02 08:02:19;;;;;;;1.80;1.20;;;;;;;;;;5087583;28;20048;-75
2023/01/02 08:04:49;;;;;;;1.77;1.25;;;;;;;;;;5087817;28;20051;-75
2023/01/02 08:07:20;;;;;;;2.88;1.40;;;;;;;;;;5087051;28;20048;-76
2023/01/02 08:09:51;;;;;;;2.75;1.30;;;;;;;;;;5085700;28;20051;-76
2023/01/02 08:12:22;;;;;;;5.28;1.70;;;;;;;;;;5086057;28;20044;-75
2023/01/02 08:14:52;;;;;;;4.18;1.38;;;;;;;;;;5086635;28;20052;-75
2023/01/02 08:17:22;;;;;;;2.78;1.38;;;;;;;;;;5086364;28;20422;-76
2023/01/02 08:19:52;;;;;;;2.95;1.60;;;;;;;;;;5086815;28;20048;-75
2023/01/02 08:22:23;;;;;;;2.50;1.33;;;;;;;;;;5086781;28;20059;-75
2023/01/02 08:24:54;;;;;;;2.75;1.25;;;;;;;;;;5087578;28;20054;-76
2023/01/02 08:27:24;;;;;;;3.50;1.30;;;;;;;;;;5087047;28;20094;-76
2023/01/02 08:29:54;;;;;;;5.07;1.60;;;;;;;;;;5086622;28;20043;-75
2023/01/02 08:32:25;;;;;;;4.60;1.38;;;;;;;;;;5087132;28;20040;-76
2023/01/02 08:34:56;;;;;;;3.50;1.55;;;;;;;;;;5086805;28;20606;-76
2023/01/02 08:37:27;;;;;;;3.42;1.45;;;;;;;;;;5086837;28;20056;-76
2023/01/02 08:39:57;;;;;;;8.52;1.33;;;;;;;;;;5086458;28;20479;-76
2023/01/02 08:42:27;;;;;;;14.30;1.95;;;;;;;;;;5086318;28;20059;-76
2023/01/02 08:44:57;;;;;;;31.13;2.25;;;;;;;;;;5086969;28;20051;-76
2023/01/02 08:47:28;;;;;;;23.20;1.98;;;;;;;;;;5086557;28;20036;-76
2023/01/02 08:49:58;;;;;;;8.95;1.63;;;;;;;;;;5085742;28;20046;-76
2023/01/02 08:52:28;;;;;;;10.05;1.80;;;;;;;;;;5085632;28;20581;-77
2023/01/02 08:55:02;;;;;;;10.50;1.70;;;;;;;;;;5086549;28;20059;-76
2023/01/02 08:57:33;;;;;;;21.27;2.50;;;;;;;;;;5085788;28;20040;-76
2023/01/02 09:00:05;;;;;;;11.43;1.60;;;;;;;;;;5086523;28;20051;-76
2023/01/02 09:02:35;;;;;;;5.13;1.45;;;;;;;;;;5086079;28;20048;-76
2023/01/02 09:05:06;;;;;;;4.13;1.52;;;;;;;;;;5084826;28;20040;-76
2023/01/02 09:07:37;;;;;;;11.82;2.25;;;;;;;;;;5086048;28;20047;-75
2023/01/02 09:10:10;;;;;;;4.50;1.50;;;;;;;;;;5085188;28;20040;-75
2023/01/02 09:12:40;;;;;;;5.55;1.90;;;;;;;;;;5086577;28;20040;-76
2023/01/02 09:15:10;;;;;;;2.65;1.33;;;;;;;;;;5086005;28;20612;-78
2023/01/02 09:17:43;;;;;;;3.53;1.60;;;;;;;;;;5084232;28;20099;-76
2023/01/02 09:20:13;;;;;;;4.95;1.40;;;;;;;;;;5085492;28;20048;-78
2023/01/02 09:22:43;;;;;;;4.28;1.75;;;;;;;;;;5085976;28;20051;-77
2023/01/02 09:25:13;;;;;;;5.00;1.50;;;;;;;;;;5086051;28;20056;-76
2023/01/02 09:27:51;;;;;;;1.98;1.17;;;;;;;;;;5084701;28;20052;-76
2023/01/02 09:30:22;;;;;;;3.80;1.20;;;;;;;;;;5087405;28;20059;-75
2023/01/02 09:32:54;;;;;;;3.00;1.73;;;;;;;;;;5090748;28;20124;-76
2023/01/02 09:35:24;;;;;;;4.55;1.23;;;;;;;;;;5090159;28;20055;-75
2023/01/02 09:37:54;;;;;;;3.30;1.30;;;;;;;;;;5089580;28;20499;-76
2023/01/02 09:40:25;;;;;;;5.15;1.33;;;;;;;;;;5089593;28;20044;-76
2023/01/02 09:42:59;;;;;;;3.92;1.63;;;;;;;;;;5090167;28;20044;-76
2023/01/02 09:45:30;;;;;;;2.60;1.35;;;;;;;;;;5090223;28;20056;-76
2023/01/02 09:48:01;;;;;;;3.70;1.52;;;;;;;;;;5089598;28;20040;-75
2023/01/02 09:50:32;;;;;;;3.65;1.27;;;;;;;;;;5088388;28;20040;-75
2023/01/02 09:53:04;;;;;;;7.45;3.03;;;;;;;;;;5089572;28;20048;-76
2023/01/02 09:55:57;;;;;;;3.60;1.35;;;;;;;;;;5089859;28;20040;-75
2023/01/02 09:58:45;;;;;;;5.25;1.20;;;;;;;;;;5090064;28;20549;-76
2023/01/02 10:01:32;;;;;;;7.00;1.77;;;;;;;;;;5090114;28;20403;-75
2023/01/02 10:04:34;;;;;;;8.07;1.67;;;;;;;;;;5087476;28;20048;-75
2023/01/02 10:07:16;;;;;;;3.40;1.10;;;;;;;;;;5089194;28;20048;-77
2023/01/02 10:10:06;;;;;;;4.50;1.30;;;;;;;;;;5089360;28;20039;-76
2023/01/02 10:12:45;;;;;;;5.68;1.60;;;;;;;;;;5088770;28;20055;-76
2023/01/02 10:15:25;;;;;;;1.98;1.05;;;;;;;;;;5089080;28;20040;-75
2023/01/02 10:18:05;;;;;;;6.50;2.42;;;;;;;;;;5089327;28;20419;-76
2023/01/02 10:20:40;;;;;;;1.92;1.17;;;;;;;;;;5088778;28;20430;-76
2023/01/02 10:23:21;;;;;;;2.03;1.05;;;;;;;;;;5089214;28;20051;-75
2023/01/02 10:25:58;;;;;;;3.08;1.90;;;;;;;;;;5107032;28;20056;-76
2023/01/02 10:29:04;;;;;;;2.88;0.98;;;;;;;;;;5110136;28;20058;-81
2023/01/02 10:31:41;;;;;;;4.25;1.20;;;;;;;;;;5107629;28;20055;-76
2023/01/02 10:34:17;;;;;;;4.70;1.20;;;;;;;;;;5109622;28;20398;-76
2023/01/02 10:36:49;;;;;;;3.88;1.20;;;;;;;;;;5109285;28;20398;-76
2023/01/02 10:39:23;;;;;;;1.58;1.10;;;;;;;;;;5109459;28;20589;-76
2023/01/02 10:41:58;;;;;;;9.50;1.45;;;;;;;;;;5107310;28;20525;-76
2023/01/02 10:44:36;;;;;;;3.88;1.33;;;;;;;;;;5108963;28;20054;-77
2023/01/02 10:47:35;;;;;;;5.68;1.08;;;;;;;;;;5109362;28;20490;-75
2023/01/02 10:50:13;;;;;;;1.75;0.90;;;;;;;;;;5107767;28;20145;-77
2023/01/02 10:53:05;;;;;;;2.35;1.02;;;;;;;;;;5107538;28;20518;-78
2023/01/02 10:55:42;;;;;;;2.25;1.13;;;;;;;;;;5109155;28;20047;-74
2023/01/02 10:58:28;;;;;;;9.68;1.70;;;;;;;;;;5108994;28;20799;-77
2023/01/02 11:01:19;;;;;;;1.25;0.90;;;;;;;;;;5107917;28;20066;-76
2023/01/02 11:03:58;;;;;;;2.83;0.95;;;;;;;;;;5108722;28;20048;-78
2023/01/02 11:06:31;;;;;;;2.33;1.10;;;;;;;;;;5107605;28;20055;-78
2023/01/02 11:09:37;;;;;;;3.60;1.23;;;;;;;;;;5108912;28;20047;-77
2023/01/02 11:12:11;;;;;;;2.10;1.15;;;;;;;;;;5109611;28;20040;-73
2023/01/02 11:14:41;;;;;;;2.97;1.30;;;;;;;;;;5108692;28;20054;-74
2023/01/02 11:17:14;;;;;;;3.85;1.63;;;;;;;;;;5108016;28;20043;-74
2023/01/02 11:19:51;;;;;;;2.50;1.45;;;;;;;;;;5109280;28;20043;-74
2023/01/02 11:22:34;;;;;;;4.68;1.10;;;;;;;;;;5108740;28;20047;-76
2023/01/02 11:25:12;;;;;;;5.75;1.27;;;;;;;;;;5108794;28;20059;-75
2023/01/02 11:27:43;;;;;;;7.55;2.22;;;;;;;;;;5108406;28;20330;-76
2023/01/02 11:30:51;;;;;;;4.32;1.88;;;;;;;;;;5108571;28;20048;-75
2023/01/02 11:33:31;;;;;;;3.80;1.50;;;;;;;;;;5108425;28;20047;-75
2023/01/02 11:36:03;;;;;;;4.13;1.33;;;;;;;;;;5108240;28;20051;-76
2023/01/02 11:38:46;;;;;;;3.15;1.40;;;;;;;;;;5108330;28;20043;-75
2023/01/02 11:44:52;;;;;;;2.28;1.13;;;;;;;;;;5077034;28;20054;-75
2023/01/02 11:47:33;;;;;;;2.60;1.52;;;;;;;;;;5108054;28;20047;-75
2023/01/02 11:50:03;;;;;;;3.83;1.75;;;;;;;;;;5108528;28;20047;-76
2023/01/02 11:52:48;;;;;;;1.52;0.95;;;;;;;;;;5106498;28;20047;-75
2023/01/02 11:55:43;;;;;;;4.25;1.27;;;;;;;;;;5108203;28;20050;-76
2023/01/02 11:58:32;;;;;;;3.65;1.50;;;;;;;;;;5106048;28;20074;-75
2023/01/02 12:01:18;;;;;;;2.85;1.10;;;;;;;;;;5107577;28;20422;-76
2023/01/02 12:03:49;;;;;;;5.05;1.58;;;;;;;;;;5106877;28;20055;-76
2023/01/02 12:06:23;;;;;;;1.10;1.00;;;;;;;;;;5107948;28;20036;-76
2023/01/02 12:09:10;;;;;;;3.35;1.30;;;;;;;;;;5108023;28;20043;-77
2023/01/02 12:12:02;;;;;;;4.85;1.30;;;;;;;;;;5112971;28;20031;-76
2023/01/02 12:15:18;;;;;;;4.63;1.40;;;;;;;;;;5108804;28;20044;-77
2023/01/02 12:17:57;;;;;;;4.22;1.40;;;;;;;;;;5107179;28;20048;-79
2023/01/02 12:20:40;;;;;;;3.53;1.17;;;;;;;;;;5109868;28;20050;-77
2023/01/02 12:23:26;;;;;;;3.65;1.20;;;;;;;;;;5107604;28;20058;-74
2023/01/02 12:26:08;;;;;;;4.03;1.27;;;;;;;;;;5107580;28;20062;-77
2023/01/02 12:28:52;;;;;;;5.47;1.40;;;;;;;;;;5107252;28;20067;-77
2023/01/02 12:32:18;;;;;;;4.85;1.20;;;;;;;;;;5108123;28;20031;-76
2023/01/02 12:35:25;;;;;;;5.53;1.90;;;;;;;;;;5024316;28;20057;-75
2023/01/02 12:37:59;;;;;;;8.95;1.63;;;;;;;;;;5107660;28;20043;-75
2023/01/02 12:41:05;;;;;;;4.68;1.45;;;;;;;;;;5106802;28;20039;-76
2023/01/02 12:43:43;;;;;;;2.58;1.23;;;;;;;;;;5107472;28;20494;-75
2023/01/02 12:46:28;;;;;;;7.35;1.67;;;;;;;;;;5107966;28;20040;-77
2023/01/02 12:49:10;;;;;;;4.20;1.50;;;;;;;;;;5106912;28;20048;-76
2023/01/02 12:52:02;;;;;;;5.50;1.60;;;;;;;;;;5107487;28;20497;-75
2023/01/02 12:54:39;;;;;;;1.83;1.27;;;;;;;;;;5107215;28;20062;-76
2023/01/02 12:57:09;;;;;;;3.25;1.42;;;;;;;;;;5107425;28;20043;-77
2023/01/02 12:59:48;;;;;;;1.77;1.10;;;;;;;;;;5106942;28;20050;-77
2023/01/02 13:03:17;;;;;;;7.38;1.25;;;;;;;;;;5107134;28;20054;-75
2023/01/02 13:05:57;;;;;;;2.92;1.30;;;;;;;;;;5043478;28;20480;-76
2023/01/02 13:08:34;;;;;;;4.18;1.05;;;;;;;;;;5096993;28;20055;-76
2023/01/02 13:11:08;;;;;;;5.18;1.30;;;;;;;;;;5107040;28;20048;-76
2023/01/02 13:13:39;;;;;;;1.35;1.08;;;;;;;;;;5106768;28;20050;-75
2023/01/02 13:16:13;;;;;;;1.88;1.40;;;;;;;;;;5105953;28;20047;-75
2023/01/02 13:19:38;;;;;;;2.80;1.20;;;;;;;;;;5106766;28;20085;-76
2023/01/02 13:22:34;;;;;;;11.02;1.67;;;;;;;;;;5106253;28;20047;-76
2023/01/02 13:25:11;;;;;;;2.20;1.20;;;;;;;;;;5106346;28;20056;-74
2023/01/02 13:27:44;;;;;;;3.03;1.20;;;;;;;;;;5106749;28;20055;-77
2023/01/02 13:30:33;;;;;;;2.58;1.45;;;;;;;;;;5104763;28;20051;-75
2023/01/02 13:33:36;;;;;;;3.95;1.33;;;;;;;;;;5106310;28;20040;-77
2023/01/02 13:36:28;;;;;;;6.07;1.70;;;;;;;;;;5106505;28;20437;-78
2023/01/02 13:39:04;;;;;;;8.15;1.60;;;;;;;;;;5107236;28;20052;-75
2023/01/02 13:42:57;;;;;;;2.80;1.10;;;;;;;;;;5105780;28;20351;-74
2023/01/02 13:44:38;;;;;;;5.70;1.70;;;;;;;;;;5107440;28;20047;-74
2023/01/02 13:47:35;;;;;;;3.83;1.20;;;;;;;;;;5106209;28;20402;-74
2023/01/02 13:50:14;;;;;;;3.63;1.60;;;;;;;;;;5097050;28;20514;-79
2023/01/02 13:53:29;;;;;;;2.42;1.10;;;;;;;;;;5105695;28;20770;-76
2023/01/02 13:56:11;;;;;;;3.90;1.25;;;;;;;;;;5099305;28;20063;-76
2023/01/02 13:58:47;;;;;;;3.70;1.13;;;;;;;;;;5105915;28;20058;-76
2023/01/02 14:01:22;;;;;;;2.83;1.10;;;;;;;;;;5106350;28;20509;-76
2023/01/02 14:04:11;;;;;;;1.48;1.10;;;;;;;;;;5105511;28;20047;-76
2023/01/02 14:06:46;;;;;;;2.67;1.13;;;;;;;;;;5105959;28;20486;-77
2023/01/02 14:09:25;;;;;;;3.67;1.33;;;;;;;;;;5088455;28;20051;-76
2023/01/02 14:12:02;;;;;;;2.90;1.17;;;;;;;;;;5105314;28;20521;-75
2023/01/02 14:14:50;;;;;;;3.20;1.10;;;;;;;;;;5105455;28;20044;-75
2023/01/02 14:17:54;;;;;;;2.05;0.90;;;;;;;;;;5108643;28;20043;-74
2023/01/02 14:20:28;;;;;;;4.18;1.30;;;;;;;;;;5109659;28;20043;-74
2023/01/02 14:23:05;;;;;;;16.48;1.45;;;;;;;;;;5109272;28;20051;-76
2023/01/02 14:25:48;;;;;;;4.78;1.27;;;;;;;;;;5109360;28;20047;-75
2023/01/02 14:28:27;;;;;;;5.53;1.73;;;;;;;;;;5109809;28;20059;-74
2023/01/02 14:30:58;;;;;;;3.38;1.17;;;;;;;;;;5109204;28;20055;-76
2023/01/02 14:33:33;;;;;;;1.95;0.98;;;;;;;;;;5109618;28;20052;-73
2023/01/02 14:36:12;;;;;;;9.25;1.40;;;;;;;;;;5109122;28;20055;-76
2023/01/02 14:38:53;;;;;;;1.10;1.00;;;;;;;;;;5108967;28;20047;-78
2023/01/02 14:44:30;;;;;;;1.45;1.10;;;;;;;;;;5109330;28;20413;-74
2023/01/02 14:47:02;;;;;;;2.65;1.23;;;;;;;;;;5106718;28;20062;-74
2023/01/02 14:49:34;;;;;;;3.67;1.00;;;;;;;;;;5109368;28;20054;-76
2023/01/02 14:52:12;;;;;;;2.00;1.10;;;;;;;;;;5108945;28;20035;-76
2023/01/02 14:54:50;;;;;;;4.40;1.00;;;;;;;;;;5109726;28;20048;-75
2023/01/02 14:57:31;;;;;;;4.03;1.20;;;;;;;;;;5109196;28;20055;-76
2023/01/02 15:00:15;;;;;;;1.98;1.00;;;;;;;;;;5108335;28;20051;-72
2023/01/02 15:02:49;;;;;;;2.42;0.95;;;;;;;;;;5108991;28;20510;-77
2023/01/02 15:05:47;;;;;;;3.90;1.13;;;;;;;;;;5109052;28;20406;-73
2023/01/02 15:08:26;;;;;;;4.63;0.93;;;;;;;;;;5108716;28;20110;-74
2023/01/02 15:13:54;;;;;;;1.58;0.90;;;;;;;;;;5109611;28;20045;-76
2023/01/02 15:16:59;;;;;;;2.10;0.93;;;;;;;;;;5109206;28;20055;-77
2023/01/02 15:19:31;;;;;;;1.48;0.98;;;;;;;;;;5108495;28;20051;-75
2023/01/02 15:22:13;;;;;;;2.97;1.02;;;;;;;;;;5108534;28;20044;-75
2023/01/02 15:24:50;;;;;;;1.33;1.00;;;;;;;;;;5108612;28;20044;-77
2023/01/02 15:27:29;;;;;;;2.05;1.02;;;;;;;;;;5107108;28;20058;-75
2023/01/02 15:30:04;;;;;;;3.00;0.90;;;;;;;;;;5108080;28;20064;-76
2023/01/02 15:32:36;;;;;;;1.15;0.98;;;;;;;;;;5108149;28;20065;-74
2023/01/02 15:35:20;;;;;;;2.50;1.20;;;;;;;;;;5107933;28;20048;-76
2023/01/02 15:37:51;;;;;;;1.73;1.27;;;;;;;;;;5108335;28;20040;-76
2023/01/02 15:40:27;;;;;;;6.30;4.07;;;;;;;;;;5108758;28;20051;-77
2023/01/02 15:45:55;;;;;;;1.60;0.90;;;;;;;;;;5107840;28;20053;-75
2023/01/02 15:48:27;;;;;;;2.95;1.10;;;;;;;;;;5106260;28;20773;-76
2023/01/02 15:50:59;;;;;;;1.17;0.90;;;;;;;;;;5108128;28;20058;-75
2023/01/02 15:53:40;;;;;;;2.22;1.30;;;;;;;;;;5107364;28;20043;-75
2023/01/02 15:56:35;;;;;;;3.97;1.40;;;;;;;;;;5108395;28;20058;-75
2023/01/02 15:59:32;;;;;;;1.80;0.80;;;;;;;;;;5106590;28;20074;-75